Time;durP1;ratioP1;P1;durP2;ratioP2;P2;SDS_P1;SDS_P2;PMS_P1;PMS_P2;Temp;Humidity;BMP_temperature;BMP_pressure;BME280_temperature;BME280_humidity;BME280_pressure;Samples;Min_cycle;Max_cycle;Signal;HPM_P1;HPM_P2
2023/07/21 00:02:06;;;;;;;13.90;7.53;;;16.50;99.90;;;;;;7281428;19;20191;-77
2023/07/21 00:04:32;;;;;;;12.73;8.03;;;16.60;99.90;;;;;;7302883;19;20718;-79
2023/07/21 00:06:57;;;;;;;12.93;7.70;;;16.60;99.90;;;;;;7282803;19;20189;-78
2023/07/21 00:09:23;;;;;;;10.33;6.50;;;16.60;99.90;;;;;;7282427;19;20205;-78
2023/07/21 00:11:49;;;;;;;10.07;7.07;;;16.50;99.90;;;;;;7284143;19;20185;-79
2023/07/21 00:14:14;;;;;;;15.07;8.10;;;16.60;99.90;;;;;;7286626;19;20307;-78
2023/07/21 00:16:40;;;;;;;10.53;7.73;;;16.60;99.90;;;;;;7284367;19;20225;-79
2023/07/21 00:19:06;;;;;;;11.53;7.60;;;16.70;99.90;;;;;;7285208;19;20195;-78
2023/07/21 00:21:32;;;;;;;12.73;8.07;;;16.60;99.90;;;;;;7306761;19;20198;-79
2023/07/21 00:23:58;;;;;;;17.30;9.13;;;16.60;99.90;;;;;;7283776;19;20181;-79
2023/07/21 00:26:26;;;;;;;18.73;10.80;;;16.50;99.90;;;;;;7279760;19;20178;-78
2023/07/21 00:28:52;;;;;;;16.83;10.73;;;16.40;99.90;;;;;;7280722;19;20185;-78
2023/07/21 00:31:18;;;;;;;15.50;10.70;;;16.50;99.90;;;;;;7278306;19;20209;-78
2023/07/21 00:33:44;;;;;;;17.17;10.80;;;16.60;99.90;;;;;;7281441;19;20191;-78
2023/07/21 00:36:12;;;;;;;16.90;11.13;;;16.60;99.90;;;;;;7277442;19;20647;-78
2023/07/21 00:38:40;;;;;;;23.73;12.50;;;16.60;99.90;;;;;;7279194;19;20210;-78
2023/07/21 00:41:06;;;;;;;16.80;11.03;;;16.70;99.90;;;;;;7279063;19;20190;-78
2023/07/21 00:43:33;;;;;;;19.77;11.27;;;16.70;99.90;;;;;;7301218;19;20678;-78
2023/07/21 00:45:59;;;;;;;18.83;11.80;;;16.60;99.90;;;;;;7279733;19;20656;-78
2023/07/21 00:48:25;;;;;;;17.27;11.33;;;16.70;99.90;;;;;;7278319;19;20191;-78
2023/07/21 00:50:53;;;;;;;16.90;12.00;;;16.80;99.90;;;;;;7278323;19;20654;-78
2023/07/21 00:53:19;;;;;;;16.10;11.80;;;16.80;99.90;;;;;;7280428;19;20291;-78
2023/07/21 00:55:48;;;;;;;19.33;10.67;;;16.70;99.90;;;;;;7278336;19;20189;-78
2023/07/21 00:58:15;;;;;;;20.17;11.90;;;16.70;99.90;;;;;;7277842;19;20194;-78
2023/07/21 01:00:41;;;;;;;19.83;11.37;;;16.60;99.90;;;;;;7277939;19;20184;-78
2023/07/21 01:03:11;;;;;;;19.93;10.80;;;16.70;99.90;;;;;;7278459;19;20193;-77
2023/07/21 01:05:43;;;;;;;17.07;11.43;;;16.80;99.90;;;;;;7278047;19;20193;-77
2023/07/21 01:08:11;;;;;;;17.00;11.30;;;16.80;99.90;;;;;;7279329;19;20202;-77
2023/07/21 01:10:38;;;;;;;20.33;10.50;;;16.80;99.90;;;;;;7279325;19;20192;-78
2023/07/21 01:13:05;;;;;;;17.03;10.27;;;16.80;99.90;;;;;;7285359;19;20221;-78
2023/07/21 01:15:35;;;;;;;13.27;10.23;;;16.60;99.90;;;;;;7300799;19;20259;-78
2023/07/21 01:18:01;;;;;;;15.57;10.27;;;16.50;99.90;;;;;;7283571;19;20192;-78
2023/07/21 01:20:28;;;;;;;13.97;9.77;;;16.50;99.90;;;;;;7285848;19;20252;-78
2023/07/21 01:23:41;;;;;;;14.87;9.00;;;16.40;99.90;;;;;;7285961;19;20200;-78
2023/07/21 01:26:10;;;;;;;15.90;9.50;;;16.30;99.90;;;;;;7078454;19;2006072;-78
2023/07/21 01:28:39;;;;;;;16.80;10.50;;;16.30;99.90;;;;;;7285786;19;20704;-77
2023/07/21 01:31:05;;;;;;;14.07;10.13;;;16.30;99.90;;;;;;7285602;19;20192;-77
2023/07/21 01:33:32;;;;;;;15.47;9.63;;;16.20;99.90;;;;;;7306706;19;20196;-79
2023/07/21 01:36:00;;;;;;;16.87;10.23;;;16.00;99.90;;;;;;7285165;19;20191;-78
2023/07/21 01:38:29;;;;;;;17.90;10.27;;;15.90;99.90;;;;;;7284877;19;20221;-79
2023/07/21 01:40:55;;;;;;;15.10;9.73;;;15.90;99.90;;;;;;7284359;19;20192;-79
2023/07/21 01:43:23;;;;;;;17.07;10.40;;;16.00;99.90;;;;;;7284772;19;20840;-78
2023/07/21 01:45:50;;;;;;;14.40;9.87;;;15.90;99.90;;;;;;7283146;19;20264;-79
2023/07/21 01:48:15;;;;;;;14.50;9.97;;;16.00;99.90;;;;;;7284774;19;20656;-77
2023/07/21 01:50:42;;;;;;;12.57;9.33;;;15.90;99.90;;;;;;7283163;19;20181;-78
2023/07/21 01:53:13;;;;;;;16.40;9.83;;;15.90;99.90;;;;;;7284097;19;20189;-78
2023/07/21 01:55:52;;;;;;;13.93;10.07;;;15.90;99.90;;;;;;7283770;19;20187;-79
2023/07/21 01:58:19;;;;;;;14.40;9.83;;;15.90;99.90;;;;;;7283113;19;20625;-79
2023/07/21 02:00:47;;;;;;;12.83;9.30;;;15.90;99.90;;;;;;7283091;19;20185;-79
2023/07/21 02:03:15;;;;;;;16.57;10.40;;;15.90;99.90;;;;;;7283335;19;20191;-79
2023/07/21 02:05:41;;;;;;;17.80;9.17;;;15.90;99.90;;;;;;7282282;19;20196;-78
2023/07/21 02:08:09;;;;;;;15.70;8.97;;;15.90;99.90;;;;;;7283243;19;20194;-78
2023/07/21 02:10:36;;;;;;;12.10;8.73;;;15.80;99.90;;;;;;7283192;19;20253;-78
2023/07/21 02:13:20;;;;;;;13.77;8.90;;;15.60;99.90;;;;;;7282545;19;20192;-79
2023/07/21 02:15:47;;;;;;;14.57;9.03;;;15.40;99.90;;;;;;7282455;19;20200;-79
2023/07/21 02:18:14;;;;;;;14.87;9.37;;;15.30;99.90;;;;;;7282779;19;20188;-78
2023/07/21 02:20:40;;;;;;;16.60;9.23;;;15.30;99.90;;;;;;7284090;19;20213;-78
2023/07/21 02:23:05;;;;;;;18.53;10.30;;;15.30;99.90;;;;;;7283234;19;20193;-77
2023/07/21 02:25:32;;;;;;;17.23;10.80;;;15.30;99.90;;;;;;7304753;19;20187;-79
2023/07/21 02:27:57;;;;;;;17.23;11.30;;;15.40;99.90;;;;;;7280958;19;20198;-79
2023/07/21 02:30:24;;;;;;;17.17;10.43;;;15.40;99.90;;;;;;7282182;19;21025;-79
2023/07/21 02:32:50;;;;;;;17.37;11.03;;;15.40;99.90;;;;;;7281580;19;20188;-78
2023/07/21 02:35:15;;;;;;;15.40;10.40;;;15.50;99.90;;;;;;7283284;19;20666;-78
2023/07/21 02:37:41;;;;;;;15.40;10.13;;;15.40;99.90;;;;;;7282996;19;20776;-77
2023/07/21 02:40:07;;;;;;;19.57;10.57;;;15.30;99.90;;;;;;7282990;19;20193;-77
2023/07/21 02:42:35;;;;;;;15.60;10.03;;;15.30;99.90;;;;;;7300644;19;20182;-76
2023/07/21 02:45:01;;;;;;;16.50;10.30;;;15.20;99.90;;;;;;7304126;19;20192;-78
2023/07/21 02:47:27;;;;;;;16.37;10.07;;;15.20;99.90;;;;;;7282157;19;20195;-78
2023/07/21 02:49:52;;;;;;;14.63;10.33;;;15.10;99.90;;;;;;7283313;19;20193;-77
2023/07/21 02:52:18;;;;;;;20.63;11.23;;;15.20;99.90;;;;;;7280434;19;20188;-79
2023/07/21 02:54:49;;;;;;;16.63;11.00;;;15.30;99.90;;;;;;7281170;19;20197;-79
2023/07/21 02:57:15;;;;;;;18.87;11.10;;;15.20;99.90;;;;;;7280913;19;20193;-78
2023/07/21 02:59:41;;;;;;;17.97;10.60;;;15.10;99.90;;;;;;7280353;19;20198;-79
2023/07/21 03:02:07;;;;;;;20.17;11.40;;;15.00;99.90;;;;;;7281115;19;20196;-78
2023/07/21 03:04:43;;;;;;;17.90;10.93;;;14.90;99.90;;;;;;7281255;19;20255;-78
2023/07/21 03:07:11;;;;;;;17.87;10.93;;;15.00;99.90;;;;;;7281270;19;20189;-78
2023/07/21 03:09:38;;;;;;;20.37;11.13;;;15.00;99.90;;;;;;7281813;19;20179;-79
2023/07/21 03:12:13;;;;;;;22.23;11.83;;;15.10;99.90;;;;;;7280568;19;20536;-78
2023/07/21 03:14:59;;;;;;;17.60;12.80;;;15.20;99.90;;;;;;7282436;19;20218;-78
2023/07/21 03:17:26;;;;;;;19.67;13.13;;;15.20;99.90;;;;;;7278292;19;20181;-78
2023/07/21 03:19:53;;;;;;;21.20;12.47;;;15.10;99.90;;;;;;7281522;19;20203;-78
2023/07/21 03:22:19;;;;;;;20.93;12.80;;;15.00;99.90;;;;;;7281951;19;20243;-78
2023/07/21 03:24:46;;;;;;;20.13;13.27;;;15.00;99.90;;;;;;7280564;19;20192;-78
2023/07/21 03:27:12;;;;;;;18.17;12.07;;;15.00;99.90;;;;;;7280500;19;20203;-78
2023/07/21 03:29:40;;;;;;;19.27;12.27;;;15.10;99.90;;;;;;7281261;19;20182;-78
2023/07/21 03:32:08;;;;;;;19.10;12.47;;;15.10;99.90;;;;;;7280113;19;20184;-77
2023/07/21 03:34:35;;;;;;;22.50;12.70;;;15.00;99.90;;;;;;7302277;19;20211;-76
2023/07/21 03:37:04;;;;;;;21.37;12.07;;;15.00;99.90;;;;;;7302210;19;20187;-78
2023/07/21 03:39:31;;;;;;;18.67;12.20;;;15.10;99.90;;;;;;7280116;19;20191;-78
2023/07/21 03:41:57;;;;;;;18.73;12.73;;;15.00;99.90;;;;;;7279475;19;20214;-79
2023/07/21 03:44:22;;;;;;;21.13;11.77;;;14.90;99.90;;;;;;7278862;19;20220;-78
2023/07/21 03:46:48;;;;;;;20.00;11.60;;;14.90;99.90;;;;;;7281170;19;20188;-78
2023/07/21 03:49:30;;;;;;;20.37;12.60;;;14.90;99.90;;;;;;7281169;19;20253;-79
2023/07/21 03:52:03;;;;;;;20.17;11.90;;;15.00;99.90;;;;;;7280192;19;20199;-79
2023/07/21 03:54:29;;;;;;;19.13;11.80;;;15.00;99.90;;;;;;7280094;19;20701;-78
2023/07/21 03:56:54;;;;;;;22.37;11.87;;;14.90;99.90;;;;;;7279173;19;20194;-78
2023/07/21 03:59:20;;;;;;;18.23;11.37;;;14.80;99.90;;;;;;7279867;19;20191;-79
2023/07/21 04:01:47;;;;;;;18.50;12.40;;;14.70;99.90;;;;;;7279351;19;20191;-79
2023/07/21 04:04:12;;;;;;;19.63;12.20;;;14.70;99.90;;;;;;7279459;19;20204;-77
2023/07/21 04:06:38;;;;;;;21.43;12.60;;;14.60;99.90;;;;;;7278195;19;20666;-78
2023/07/21 04:09:04;;;;;;;21.27;12.67;;;14.60;99.90;;;;;;7293127;19;20262;-77
2023/07/21 04:11:30;;;;;;;19.53;12.77;;;14.60;99.90;;;;;;7301163;19;20647;-78
2023/07/21 04:13:59;;;;;;;23.73;13.40;;;14.60;99.90;;;;;;7280528;19;20219;-79
2023/07/21 04:16:25;;;;;;;20.43;13.03;;;14.70;99.90;;;;;;7278782;19;20188;-77
2023/07/21 04:18:51;;;;;;;18.90;12.93;;;14.80;99.90;;;;;;7277972;19;20223;-78
2023/07/21 04:21:17;;;;;;;21.50;12.90;;;14.90;99.90;;;;;;7279982;19;20190;-79
2023/07/21 04:23:43;;;;;;;20.20;12.17;;;14.90;99.90;;;;;;7278162;19;20190;-78
2023/07/21 04:26:11;;;;;;;23.27;12.47;;;15.00;99.90;;;;;;7278869;19;20204;-77
2023/07/21 04:28:39;;;;;;;19.83;12.00;;;15.10;99.90;;;;;;7279881;19;20198;-78
2023/07/21 04:31:05;;;;;;;18.87;12.57;;;15.00;99.90;;;;;;7284252;19;20213;-77
2023/07/21 04:33:41;;;;;;;21.33;13.53;;;15.00;99.90;;;;;;7279330;19;20207;-77
2023/07/21 04:36:07;;;;;;;22.73;13.07;;;15.00;99.90;;;;;;7279313;19;20186;-77
2023/07/21 04:38:33;;;;;;;18.27;12.33;;;14.90;99.90;;;;;;7300339;19;20210;-79
2023/07/21 04:41:11;;;;;;;20.83;12.80;;;14.90;99.90;;;;;;7176092;19;2004574;-78
2023/07/21 04:43:37;;;;;;;16.83;11.47;;;15.00;99.90;;;;;;7278169;19;20654;-77
2023/07/21 04:46:03;;;;;;;17.67;11.87;;;15.20;99.90;;;;;;7299274;19;20195;-78
2023/07/21 04:48:38;;;;;;;17.03;11.53;;;15.30;99.90;;;;;;7258037;19;20195;-78
2023/07/21 04:51:04;;;;;;;17.57;11.20;;;15.50;99.90;;;;;;7287823;19;20192;-77
2023/07/21 04:53:30;;;;;;;19.47;11.97;;;15.60;99.90;;;;;;7305975;19;20196;-78
2023/07/21 04:55:57;;;;;;;19.27;11.47;;;15.70;99.90;;;;;;7286245;19;20180;-79
2023/07/21 04:58:24;;;;;;;20.03;11.73;;;15.90;99.90;;;;;;7285568;19;20737;-78
2023/07/21 05:00:51;;;;;;;15.40;10.90;;;15.90;99.90;;;;;;7285217;19;20188;-78
2023/07/21 05:03:17;;;;;;;17.67;11.63;;;16.10;99.90;;;;;;7284875;19;20248;-79
2023/07/21 05:05:48;;;;;;;16.70;11.17;;;16.60;99.90;;;;;;7283999;19;20199;-77
2023/07/21 05:08:13;;;;;;;17.50;10.67;;;17.60;99.90;;;;;;7285858;19;20260;-77
2023/07/21 05:10:39;;;;;;;16.43;9.90;;;18.40;99.90;;;;;;7285688;19;20668;-77
2023/07/21 05:13:08;;;;;;;13.83;9.43;;;18.80;99.90;;;;;;7286193;19;20193;-78
2023/07/21 05:15:41;;;;;;;14.33;8.50;;;19.50;99.90;;;;;;7285070;19;20204;-78
2023/07/21 05:18:17;;;;;;;16.40;8.13;;;20.20;99.90;;;;;;7283772;19;20193;-78
2023/07/21 05:21:06;;;;;;;14.53;8.23;;;20.90;99.90;;;;;;7260543;19;20185;-78
2023/07/21 05:23:42;;;;;;;13.47;8.63;;;21.80;99.90;;;;;;7285762;19;20202;-78
2023/07/21 05:26:17;;;;;;;13.63;8.17;;;22.50;99.90;;;;;;7285828;19;20248;-78
2023/07/21 05:28:42;;;;;;;10.63;7.33;;;23.20;99.90;;;;;;7285950;19;20287;-78
2023/07/21 05:31:12;;;;;;;14.43;7.90;;;24.20;99.90;;;;;;7283969;19;20188;-78
2023/07/21 05:33:58;;;;;;;11.57;7.60;;;24.90;99.90;;;;;;7283912;19;20295;-78
2023/07/21 05:36:24;;;;;;;11.13;7.87;;;24.60;99.90;;;;;;7284326;19;20189;-78
2023/07/21 05:38:51;;;;;;;12.07;8.40;;;24.30;99.90;;;;;;7284981;19;20690;-78
2023/07/21 05:41:18;;;;;;;12.90;8.30;;;24.60;99.90;;;;;;7285170;19;20192;-78
2023/07/21 05:43:44;;;;;;;12.47;8.20;;;24.70;99.90;;;;;;7284624;19;20193;-78
2023/07/21 05:46:10;;;;;;;11.43;8.40;;;24.70;99.90;;;;;;7283390;19;20192;-78
2023/07/21 05:48:43;;;;;;;12.17;8.17;;;24.10;99.90;;;;;;7284726;19;20200;-78
2023/07/21 05:51:13;;;;;;;12.40;7.80;;;23.80;99.90;;;;;;7284815;19;20561;-78
2023/07/21 05:53:39;;;;;;;13.37;9.20;;;23.90;99.90;;;;;;7285741;19;20192;-78
2023/07/21 05:56:06;;;;;;;13.83;9.60;;;24.50;99.90;;;;;;7291560;19;20220;-78
2023/07/21 05:58:48;;;;;;;14.97;9.50;;;25.10;99.90;;;;;;7289952;19;20307;-78
2023/07/21 06:01:14;;;;;;;14.60;10.30;;;25.30;99.90;;;;;;7290370;19;20207;-77
2023/07/21 06:03:41;;;;;;;15.07;10.90;;;25.30;99.90;;;;;;7287594;19;20551;-78
2023/07/21 06:06:07;;;;;;;17.93;11.80;;;25.10;99.90;;;;;;7282750;19;20193;-77
2023/07/21 06:08:51;;;;;;;16.93;11.63;;;24.50;99.90;;;;;;7284808;19;20651;-79
2023/07/21 06:11:35;;;;;;;17.37;11.50;;;23.80;99.90;;;;;;7261747;19;20195;-79
2023/07/21 06:14:20;;;;;;;19.73;12.10;;;23.10;99.90;;;;;;7284707;19;20276;-79
2023/07/21 06:17:08;;;;;;;18.67;13.63;;;22.70;99.90;;;;;;7261819;19;20177;-78
2023/07/21 06:19:34;;;;;;;17.17;12.83;;;22.20;99.90;;;;;;7295601;19;20540;-77
2023/07/21 06:22:00;;;;;;;20.13;12.87;;;21.90;99.90;;;;;;7304372;19;20185;-78
2023/07/21 06:24:26;;;;;;;17.97;12.57;;;21.70;99.90;;;;;;7283886;19;20184;-78
2023/07/21 06:26:53;;;;;;;20.33;14.03;;;21.90;99.90;;;;;;7284689;19;21000;-78
2023/07/21 06:29:19;;;;;;;17.07;12.53;;;22.00;99.90;;;;;;7284616;19;20191;-78
2023/07/21 06:31:45;;;;;;;18.33;13.30;;;22.10;99.90;;;;;;7283856;19;20533;-78
2023/07/21 06:34:33;;;;;;;20.93;14.03;;;22.20;99.90;;;;;;7284261;19;20640;-79
2023/07/21 06:37:18;;;;;;;19.27;14.87;;;22.10;99.90;;;;;;7181423;19;2004609;-78
2023/07/21 06:40:01;;;;;;;21.33;14.70;;;22.10;99.90;;;;;;7281698;19;20191;-79
2023/07/21 06:42:47;;;;;;;21.47;15.00;;;22.20;99.90;;;;;;7181324;19;2004684;-78
2023/07/21 06:45:33;;;;;;;19.00;14.97;;;22.10;99.90;;;;;;7282618;19;20663;-78
2023/07/21 06:48:21;;;;;;;18.70;15.13;;;22.00;99.90;;;;;;7180835;19;2004565;-78
2023/07/21 06:51:02;;;;;;;22.87;16.03;;;22.00;99.90;;;;;;7284093;19;20211;-78
2023/07/21 06:53:28;;;;;;;21.37;15.37;;;21.60;99.90;;;;;;7283143;19;20192;-78
2023/07/21 06:55:54;;;;;;;21.70;16.17;;;21.50;99.90;;;;;;7282113;19;20204;-78
2023/07/21 06:58:20;;;;;;;18.77;15.30;;;21.60;99.90;;;;;;7282610;19;20192;-78
2023/07/21 07:00:46;;;;;;;22.53;16.63;;;21.70;99.90;;;;;;7282924;19;20524;-78
2023/07/21 07:03:12;;;;;;;21.83;16.63;;;21.70;99.90;;;;;;7282763;19;20200;-79
2023/07/21 07:05:41;;;;;;;20.63;16.03;;;21.60;99.90;;;;;;7281750;19;20262;-78
2023/07/21 07:08:07;;;;;;;19.83;15.63;;;21.50;99.90;;;;;;7284359;19;20180;-78
2023/07/21 07:10:34;;;;;;;23.43;16.83;;;21.50;99.90;;;;;;7304335;19;20723;-79
2023/07/21 07:13:00;;;;;;;21.47;15.57;;;21.50;99.90;;;;;;7284910;19;20187;-79
2023/07/21 07:15:25;;;;;;;22.33;17.20;;;22.00;99.90;;;;;;7281431;19;20193;-78
2023/07/21 07:17:51;;;;;;;21.17;16.03;;;22.60;99.90;;;;;;7281821;19;20182;-79
2023/07/21 07:20:17;;;;;;;19.30;14.83;;;23.40;99.90;;;;;;7281507;19;20545;-79
2023/07/21 07:22:43;;;;;;;18.53;13.90;;;23.90;99.90;;;;;;7283591;19;20192;-78
2023/07/21 07:25:09;;;;;;;18.67;14.43;;;24.00;99.90;;;;;;7281764;19;20194;-78
2023/07/21 07:27:34;;;;;;;19.17;14.80;;;23.40;99.90;;;;;;7295001;19;20210;-78
2023/07/21 07:30:00;;;;;;;19.30;14.97;;;23.70;99.90;;;;;;7299084;19;20739;-78
2023/07/21 07:32:26;;;;;;;21.13;15.03;;;24.00;99.90;;;;;;7282681;19;20197;-78
2023/07/21 07:34:56;;;;;;;17.50;13.60;;;24.10;99.90;;;;;;7282281;19;20189;-78
2023/07/21 07:37:23;;;;;;;17.97;12.83;;;24.30;99.90;;;;;;7283081;19;20193;-78
2023/07/21 07:39:49;;;;;;;19.03;14.33;;;25.50;99.90;;;;;;7282210;19;20192;-78
2023/07/21 07:42:15;;;;;;;17.00;12.83;;;27.00;99.90;;;;;;7282151;19;20185;-78
2023/07/21 07:44:41;;;;;;;18.02;13.52;;;27.20;99.90;;;;;;7281359;19;20192;-79
2023/07/21 07:47:08;;;;;;;17.08;12.25;;;27.10;99.90;;;;;;7281706;19;20207;-79
2023/07/21 07:49:35;;;;;;;18.23;12.90;;;27.10;99.90;;;;;;7304120;19;20196;-79
2023/07/21 07:52:01;;;;;;;18.63;12.80;;;27.80;99.90;;;;;;7281806;19;20648;-79
2023/07/21 07:54:27;;;;;;;17.15;11.82;;;27.00;99.90;;;;;;7283381;19;20189;-78
2023/07/21 07:56:52;;;;;;;17.58;12.90;;;27.70;99.90;;;;;;7281707;19;20651;-79
2023/07/21 07:59:18;;;;;;;16.33;12.88;;;27.70;99.90;;;;;;7280384;19;20185;-79
2023/07/21 08:01:44;;;;;;;16.65;12.43;;;27.10;99.90;;;;;;7281765;19;20196;-78
2023/07/21 08:04:10;;;;;;;17.55;13.27;;;26.60;99.90;;;;;;7281485;19;20181;-78
2023/07/21 08:06:35;;;;;;;18.35;14.60;;;25.90;99.90;;;;;;7284102;19;20593;-77
2023/07/21 08:09:02;;;;;;;18.13;14.53;;;25.30;99.90;;;;;;7301759;19;20180;-78
2023/07/21 08:11:28;;;;;;;20.83;16.88;;;25.20;99.90;;;;;;7281859;19;20187;-79
2023/07/21 08:13:54;;;;;;;19.83;15.33;;;24.90;99.90;;;;;;7282813;19;20265;-79
2023/07/21 08:16:19;;;;;;;19.35;15.52;;;24.80;99.90;;;;;;7281498;19;20197;-78
2023/07/21 08:18:45;;;;;;;20.73;15.90;;;24.50;99.90;;;;;;7279953;19;20184;-78
2023/07/21 08:21:22;;;;;;;21.43;17.13;;;24.40;99.90;;;;;;7281777;19;20668;-78
2023/07/21 08:23:50;;;;;;;25.80;20.13;;;24.20;99.90;;;;;;7280146;19;20193;-78
2023/07/21 08:26:17;;;;;;;24.03;18.67;;;24.10;99.90;;;;;;7280363;19;20196;-78
2023/07/21 08:28:43;;;;;;;29.90;24.20;;;24.30;99.90;;;;;;7280711;19;20565;-78
2023/07/21 08:31:09;;;;;;;26.70;21.77;;;24.50;99.90;;;;;;7280893;19;20267;-78
2023/07/21 08:33:38;;;;;;;23.70;20.37;;;25.20;99.90;;;;;;7294672;19;20181;-77
2023/07/21 08:36:05;;;;;;;21.60;18.13;;;26.70;99.90;;;;;;7303362;19;20204;-78
2023/07/21 08:38:33;;;;;;;20.30;15.95;;;28.80;99.90;;;;;;7282155;19;20185;-78
2023/07/21 08:41:05;;;;;;;20.45;16.58;;;31.10;99.90;;;;;;7283178;19;20224;-78
2023/07/21 08:43:30;;;;;;;17.88;15.07;;;31.90;99.90;;;;;;7285937;19;20193;-79
2023/07/21 08:46:00;;;;;;;18.42;15.63;;;32.50;99.90;;;;;;7280507;19;20233;-79
2023/07/21 08:48:26;;;;;;;17.65;15.75;;;32.80;99.90;;;;;;7280807;19;20645;-79
2023/07/21 08:50:56;;;;;;;19.85;17.38;;;32.50;99.90;;;;;;7280443;19;20185;-78
2023/07/21 08:53:26;;;;;;;21.95;19.63;;;31.20;99.90;;;;;;7282435;19;20199;-79
2023/07/21 08:55:56;;;;;;;20.48;17.48;;;29.00;99.90;;;;;;7281585;19;20197;-78
2023/07/21 08:58:22;;;;;;;20.33;17.83;;;28.80;99.90;;;;;;7281385;19;20677;-79
2023/07/21 09:00:50;;;;;;;22.00;19.15;;;30.00;99.90;;;;;;7281608;19;20278;-78
2023/07/21 09:03:23;;;;;;;25.02;20.48;;;29.30;99.90;;;;;;7281610;19;20200;-79
2023/07/21 09:05:50;;;;;;;27.42;20.67;;;28.40;99.90;;;;;;7284388;19;20229;-79
2023/07/21 09:08:24;;;;;;;23.48;19.85;;;28.20;99.90;;;;;;7285298;19;20542;-78
2023/07/21 09:10:50;;;;;;;25.52;20.90;;;28.00;99.90;;;;;;7284926;19;20197;-80
2023/07/21 09:13:17;;;;;;;23.98;20.67;;;28.10;99.90;;;;;;7283154;19;20664;-78
2023/07/21 09:15:58;;;;;;;23.05;18.33;;;28.10;99.90;;;;;;7282567;19;20196;-77
2023/07/21 09:18:27;;;;;;;23.35;18.25;;;29.50;99.90;;;;;;7280236;19;20193;-79
2023/07/21 09:20:54;;;;;;;19.00;15.70;;;30.30;99.90;;;;;;7278443;19;20201;-79
2023/07/21 09:23:20;;;;;;;18.17;14.32;;;32.80;99.90;;;;;;7278902;19;20692;-78
2023/07/21 09:25:54;;;;;;;19.45;16.08;;;34.00;97.10;;;;;;7280600;19;20643;-78
2023/07/21 09:28:21;;;;;;;17.75;14.70;;;33.60;93.40;;;;;;7280934;19;20207;-79
2023/07/21 09:30:52;;;;;;;20.48;16.15;;;33.60;95.60;;;;;;7277998;19;20544;-79
2023/07/21 09:33:23;;;;;;;16.90;13.38;;;34.80;92.60;;;;;;7278865;19;20661;-79
2023/07/21 09:35:50;;;;;;;18.83;13.85;;;35.40;90.20;;;;;;7279229;19;20192;-79
2023/07/21 09:38:16;;;;;;;18.95;13.93;;;32.70;89.40;;;;;;7281239;19;20259;-79
2023/07/21 09:40:42;;;;;;;20.17;14.63;;;31.30;93.90;;;;;;7286745;19;20193;-78
2023/07/21 09:43:10;;;;;;;16.15;10.10;;;30.70;96.80;;;;;;7286883;19;20185;-78
2023/07/21 09:45:38;;;;;;;14.57;8.63;;;32.40;93.30;;;;;;7291116;19;20199;-78
2023/07/21 09:48:05;;;;;;;12.57;7.55;;;32.80;89.30;;;;;;7303986;19;20623;-77
2023/07/21 09:50:30;;;;;;;9.43;5.50;;;33.80;90.30;;;;;;7301294;19;20586;-79
2023/07/21 09:52:57;;;;;;;10.15;5.47;;;33.70;85.60;;;;;;7286010;19;20284;-79
2023/07/21 09:55:26;;;;;;;13.82;6.65;;;32.10;84.40;;;;;;7285763;19;20532;-79
2023/07/21 09:57:53;;;;;;;10.30;5.68;;;32.60;87.80;;;;;;7285218;19;20203;-79
2023/07/21 10:00:19;;;;;;;9.18;5.05;;;32.50;83.10;;;;;;7285308;19;20217;-78
2023/07/21 10:02:47;;;;;;;10.95;4.45;;;31.30;85.20;;;;;;7284540;19;20220;-78
2023/07/21 10:05:16;;;;;;;7.57;3.25;;;32.30;84.90;;;;;;7284633;19;20206;-78
2023/07/21 10:07:48;;;;;;;5.03;2.30;;;33.50;79.10;;;;;;7284570;19;20197;-79
2023/07/21 10:10:15;;;;;;;4.18;1.77;;;34.00;73.90;;;;;;7285292;19;20185;-77
2023/07/21 10:12:52;;;;;;;5.75;1.85;;;35.40;71.90;;;;;;7285514;19;20188;-77
2023/07/21 10:15:31;;;;;;;5.18;1.60;;;36.50;69.50;;;;;;7285420;19;20180;-78
2023/07/21 10:18:07;;;;;;;4.70;1.60;;;38.00;64.40;;;;;;7284004;19;20810;-78
2023/07/21 10:20:49;;;;;;;2.60;1.45;;;38.00;61.50;;;;;;7284613;19;20561;-79
2023/07/21 10:23:26;;;;;;;4.88;1.70;;;36.70;60.10;;;;;;7181002;19;2004598;-78
2023/07/21 10:25:52;;;;;;;3.15;1.40;;;36.40;61.50;;;;;;7284480;19;20184;-78
2023/07/21 10:28:43;;;;;;;3.67;1.23;;;35.40;59.50;;;;;;7283437;19;20193;-78
2023/07/21 10:31:21;;;;;;;5.57;1.40;;;34.20;60.20;;;;;;7262047;19;20189;-78
2023/07/21 10:34:04;;;;;;;3.40;1.27;;;33.20;65.00;;;;;;7284545;19;20723;-79
2023/07/21 10:36:53;;;;;;;5.13;1.10;;;33.00;65.00;;;;;;7284756;19;20714;-78
2023/07/21 10:39:22;;;;;;;2.53;1.30;;;32.50;64.50;;;;;;7180940;19;2004577;-77
2023/07/21 10:41:51;;;;;;;3.95;1.35;;;31.80;65.20;;;;;;7284190;19;20269;-79
2023/07/21 10:44:19;;;;;;;3.40;1.13;;;31.90;64.30;;;;;;7282443;19;20199;-79
2023/07/21 10:46:46;;;;;;;2.33;1.20;;;32.40;64.60;;;;;;7284065;19;20203;-78
2023/07/21 10:49:13;;;;;;;3.05;1.10;;;32.80;65.50;;;;;;7282259;19;20193;-78
2023/07/21 10:51:39;;;;;;;6.43;1.80;;;32.40;65.10;;;;;;7283038;19;20214;-78
2023/07/21 10:54:06;;;;;;;4.82;1.50;;;31.60;67.30;;;;;;7292235;19;20188;-78
2023/07/21 10:56:39;;;;;;;6.57;1.45;;;32.80;64.80;;;;;;7304375;19;20193;-78
2023/07/21 10:59:05;;;;;;;7.88;1.80;;;33.10;64.70;;;;;;7279108;19;20199;-77
2023/07/21 11:01:31;;;;;;;6.07;2.20;;;32.10;67.90;;;;;;7304900;19;20209;-79
2023/07/21 11:03:58;;;;;;;4.47;1.90;;;30.50;70.60;;;;;;7283316;19;20201;-78
2023/07/21 11:06:25;;;;;;;6.43;2.35;;;30.10;74.00;;;;;;7281319;19;21217;-78
2023/07/21 11:08:50;;;;;;;8.88;2.65;;;29.60;75.20;;;;;;7282706;19;20188;-79
2023/07/21 11:11:16;;;;;;;7.40;2.40;;;28.90;78.60;;;;;;7282123;19;20221;-79
2023/07/21 11:13:42;;;;;;;8.10;2.42;;;28.00;81.60;;;;;;7283331;19;20209;-78
2023/07/21 11:16:09;;;;;;;8.30;2.53;;;26.70;87.90;;;;;;7282664;19;20534;-78
2023/07/21 11:18:42;;;;;;;9.40;2.15;;;26.80;92.60;;;;;;7282285;19;20193;-78
2023/07/21 11:21:08;;;;;;;5.88;2.20;;;27.30;93.60;;;;;;7284317;19;20654;-78
2023/07/21 11:23:33;;;;;;;5.07;1.90;;;27.40;92.90;;;;;;7303646;19;20177;-78
2023/07/21 11:25:59;;;;;;;6.68;2.60;;;27.80;92.80;;;;;;7283596;19;20181;-79
2023/07/21 11:28:31;;;;;;;6.90;2.78;;;27.60;92.10;;;;;;7283697;19;20275;-80
2023/07/21 11:30:57;;;;;;;8.07;3.00;;;27.50;92.50;;;;;;7280924;19;20206;-78
2023/07/21 11:33:23;;;;;;;6.32;2.40;;;27.10;94.00;;;;;;7283215;19;20189;-79
2023/07/21 11:35:51;;;;;;;8.45;2.60;;;27.10;95.00;;;;;;7282710;19;20193;-79
2023/07/21 11:38:18;;;;;;;8.25;2.45;;;27.00;93.90;;;;;;7281506;19;20192;-78
2023/07/21 11:40:46;;;;;;;6.78;2.67;;;26.90;95.10;;;;;;7281313;19;20188;-79
2023/07/21 11:43:13;;;;;;;6.68;2.53;;;27.20;95.10;;;;;;7281764;19;20187;-78
2023/07/21 11:45:40;;;;;;;6.45;2.50;;;27.40;94.80;;;;;;7279789;19;20192;-79
2023/07/21 11:48:17;;;;;;;6.05;2.67;;;27.80;93.80;;;;;;7290867;19;20184;-78
2023/07/21 11:50:54;;;;;;;6.40;2.35;;;28.20;93.00;;;;;;7282410;19;20188;-80
2023/07/21 11:53:25;;;;;;;3.85;1.77;;;28.80;92.80;;;;;;7282123;19;20770;-79
2023/07/21 11:55:50;;;;;;;8.55;2.85;;;28.70;87.90;;;;;;7280949;19;20197;-78
2023/07/21 11:58:16;;;;;;;6.15;2.72;;;28.40;88.00;;;;;;7282407;19;20204;-79
2023/07/21 12:00:43;;;;;;;10.43;3.30;;;27.70;92.00;;;;;;7281756;19;20189;-78
2023/07/21 12:03:10;;;;;;;5.95;3.45;;;27.20;93.20;;;;;;7280382;19;20204;-79
2023/07/21 12:05:36;;;;;;;7.90;4.75;;;26.90;95.70;;;;;;7289409;19;20216;-78
2023/07/21 12:08:03;;;;;;;9.07;5.10;;;26.40;98.00;;;;;;7304088;19;20221;-78
2023/07/21 12:10:29;;;;;;;10.03;5.10;;;25.70;99.10;;;;;;7280564;19;20200;-78
2023/07/21 12:12:55;;;;;;;10.37;5.03;;;25.20;99.90;;;;;;7281865;19;20206;-80
2023/07/21 12:15:21;;;;;;;9.30;5.23;;;24.80;99.90;;;;;;7281332;19;20547;-77
2023/07/21 12:17:50;;;;;;;9.17;5.10;;;24.50;99.90;;;;;;7281007;19;20788;-78
2023/07/21 12:20:17;;;;;;;9.10;5.33;;;24.20;99.90;;;;;;7280916;19;20508;-79
2023/07/21 12:22:43;;;;;;;10.43;5.73;;;24.10;99.90;;;;;;7280400;19;20253;-77
2023/07/21 12:25:09;;;;;;;8.20;4.90;;;24.10;99.90;;;;;;7280280;19;20189;-77
2023/07/21 12:27:36;;;;;;;6.93;4.33;;;24.10;99.90;;;;;;7295729;19;20193;-78
2023/07/21 12:30:09;;;;;;;7.23;4.00;;;24.10;99.90;;;;;;7304902;19;20192;-79
2023/07/21 12:32:35;;;;;;;8.83;3.90;;;24.40;99.90;;;;;;7279908;19;20197;-77
2023/07/21 12:35:01;;;;;;;6.20;3.70;;;24.60;99.90;;;;;;7303397;19;20198;-78
2023/07/21 12:37:27;;;;;;;8.80;3.83;;;24.70;99.90;;;;;;7287703;19;20668;-78
2023/07/21 12:39:54;;;;;;;9.00;4.23;;;24.80;99.90;;;;;;7283169;19;20210;-78
2023/07/21 12:42:20;;;;;;;9.93;4.83;;;24.80;99.90;;;;;;7279153;19;20185;-78